Time;durP1;ratioP1;P1;durP2;ratioP2;P2;SDS_P1;SDS_P2;PMS_P1;PMS_P2;Temp;Humidity;BMP_temperature;BMP_pressure;BME280_temperature;BME280_humidity;BME280_pressure;Samples;Min_cycle;Max_cycle;Signal;HPM_P1;HPM_P2
2023/06/06 00:00:48;;;;;;;2.60;2.38;;;20.50;46.80;;;;;;5101321;28;20676;-81
2023/06/06 00:03:13;;;;;;;2.42;2.17;;;20.60;46.90;;;;;;5102098;28;20567;-82
2023/06/06 00:05:39;;;;;;;2.50;2.30;;;20.60;46.80;;;;;;5102277;28;20655;-80
2023/06/06 00:08:07;;;;;;;2.40;2.20;;;20.60;46.80;;;;;;5118402;28;20506;-81
2023/06/06 00:10:33;;;;;;;2.28;2.08;;;20.60;46.90;;;;;;5118835;28;20172;-82
2023/06/06 00:13:01;;;;;;;2.83;2.13;;;20.60;47.00;;;;;;5101471;28;20166;-82
2023/06/06 00:15:28;;;;;;;3.10;2.58;;;20.60;47.10;;;;;;5137056;28;20163;-80
2023/06/06 00:17:55;;;;;;;2.90;2.30;;;20.60;47.10;;;;;;5119158;28;20159;-82
2023/06/06 00:20:22;;;;;;;2.42;2.22;;;20.60;47.10;;;;;;5118543;28;20175;-81
2023/06/06 00:22:53;;;;;;;2.55;2.33;;;20.50;47.10;;;;;;5136977;28;20555;-80
2023/06/06 00:25:20;;;;;;;2.80;2.60;;;20.60;47.20;;;;;;5136676;28;20192;-80
2023/06/06 00:27:45;;;;;;;2.60;2.40;;;20.50;47.20;;;;;;5101335;28;20167;-83
2023/06/06 00:30:14;;;;;;;2.75;2.55;;;20.60;47.30;;;;;;5118866;28;20242;-80
2023/06/06 00:32:40;;;;;;;3.17;2.72;;;20.60;47.40;;;;;;5136660;28;20159;-81
2023/06/06 00:35:06;;;;;;;2.75;2.40;;;20.50;47.40;;;;;;5103665;28;20212;-80
2023/06/06 00:37:33;;;;;;;3.00;2.70;;;20.50;47.40;;;;;;5120114;28;20164;-81
2023/06/06 00:39:59;;;;;;;3.28;2.97;;;20.50;47.60;;;;;;5102185;28;20179;-79
2023/06/06 00:42:26;;;;;;;3.13;2.83;;;20.50;47.60;;;;;;5119901;28;20156;-79
2023/06/06 00:44:53;;;;;;;3.20;2.75;;;20.50;47.60;;;;;;5102042;28;20160;-80
2023/06/06 00:47:20;;;;;;;3.45;2.92;;;20.50;47.60;;;;;;5102259;28;20155;-81
2023/06/06 00:49:46;;;;;;;3.17;2.88;;;20.50;47.60;;;;;;5085455;28;20175;-80
2023/06/06 00:52:12;;;;;;;3.45;2.97;;;20.50;47.70;;;;;;5101876;28;20159;-83
2023/06/06 00:54:38;;;;;;;3.33;3.03;;;20.50;47.70;;;;;;5085255;28;20172;-82
2023/06/06 00:57:07;;;;;;;3.10;2.80;;;20.50;47.70;;;;;;5084947;28;20167;-79
2023/06/06 00:59:32;;;;;;;3.75;3.30;;;20.50;47.70;;;;;;5120325;28;20210;-80
2023/06/06 01:01:58;;;;;;;3.08;2.75;;;20.50;47.70;;;;;;5101748;28;20630;-80
2023/06/06 01:04:24;;;;;;;3.17;2.88;;;20.50;47.70;;;;;;5120331;28;20205;-83
2023/06/06 01:06:51;;;;;;;3.50;3.20;;;20.50;47.70;;;;;;5085245;28;20221;-80
2023/06/06 01:09:19;;;;;;;3.20;2.90;;;20.50;47.70;;;;;;5101500;28;20629;-81
2023/06/06 01:11:57;;;;;;;3.20;2.70;;;20.50;47.70;;;;;;5120365;28;20216;-82
2023/06/06 01:14:42;;;;;;;2.85;2.63;;;20.50;47.70;;;;;;5101747;28;20148;-82
2023/06/06 01:17:09;;;;;;;3.80;3.05;;;20.50;47.60;;;;;;5119787;28;20587;-80
2023/06/06 01:19:37;;;;;;;2.50;2.30;;;20.50;47.60;;;;;;5119723;28;20184;-81
2023/06/06 01:22:04;;;;;;;3.22;2.92;;;20.50;47.50;;;;;;5102031;28;20141;-79
2023/06/06 01:24:30;;;;;;;3.40;3.10;;;20.50;47.50;;;;;;5084857;28;20262;-82
2023/06/06 01:26:55;;;;;;;3.20;2.90;;;20.40;47.50;;;;;;5119524;28;20696;-83
2023/06/06 01:29:22;;;;;;;3.10;2.80;;;20.50;47.50;;;;;;5101314;28;20144;-83
2023/06/06 01:31:56;;;;;;;3.03;2.60;;;20.50;47.60;;;;;;5101149;28;20192;-81
2023/06/06 01:34:33;;;;;;;3.08;2.78;;;20.50;47.50;;;;;;5101832;28;20218;-82
2023/06/06 01:37:13;;;;;;;3.03;2.72;;;20.50;47.40;;;;;;5085620;28;20206;-81
2023/06/06 01:39:45;;;;;;;3.03;2.72;;;20.50;47.40;;;;;;5101096;28;20282;-81
2023/06/06 01:42:13;;;;;;;3.00;2.60;;;20.50;47.40;;;;;;5101711;28;20184;-80
2023/06/06 01:44:38;;;;;;;2.50;2.30;;;20.50;47.30;;;;;;5101762;28;20152;-81
2023/06/06 01:47:04;;;;;;;2.90;2.47;;;20.40;47.40;;;;;;5100391;28;20163;-82
2023/06/06 01:49:30;;;;;;;2.55;2.33;;;20.40;47.30;;;;;;5101859;28;20187;-83
2023/06/06 01:51:56;;;;;;;2.60;2.40;;;20.50;47.50;;;;;;5101238;28;20157;-81
2023/06/06 01:54:22;;;;;;;2.50;2.30;;;20.40;48.10;;;;;;5084237;28;20169;-79
2023/06/06 01:56:50;;;;;;;2.90;2.40;;;20.40;47.40;;;;;;5101483;28;20174;-80
2023/06/06 01:59:16;;;;;;;2.75;2.50;;;20.50;47.50;;;;;;5100889;28;20232;-82
2023/06/06 02:01:43;;;;;;;2.65;2.40;;;20.40;47.40;;;;;;5100853;28;20165;-81
2023/06/06 02:04:10;;;;;;;2.55;2.30;;;20.50;47.60;;;;;;5084550;28;20156;-80
2023/06/06 02:06:35;;;;;;;2.72;2.50;;;20.50;47.40;;;;;;5119298;28;20239;-81
2023/06/06 02:09:01;;;;;;;2.47;2.13;;;20.50;47.50;;;;;;5100704;28;20206;-80
2023/06/06 02:11:28;;;;;;;2.50;2.30;;;20.40;47.40;;;;;;5100582;28;20575;-80
2023/06/06 02:13:57;;;;;;;2.58;2.38;;;20.40;47.50;;;;;;5118842;28;20566;-80
2023/06/06 02:16:24;;;;;;;2.40;2.17;;;20.40;47.50;;;;;;5084067;28;20164;-79
2023/06/06 02:18:50;;;;;;;2.38;2.17;;;20.50;47.60;;;;;;5099899;28;20163;-80
2023/06/06 02:21:16;;;;;;;2.50;2.30;;;20.40;47.50;;;;;;5118581;28;20183;-80
2023/06/06 02:23:44;;;;;;;3.30;2.60;;;20.40;47.50;;;;;;5100763;28;20151;-81
2023/06/06 02:26:10;;;;;;;2.75;2.50;;;20.40;47.50;;;;;;5118553;28;20184;-81
2023/06/06 02:28:37;;;;;;;2.78;2.40;;;20.40;47.50;;;;;;5101070;28;20251;-81
2023/06/06 02:31:02;;;;;;;2.50;2.30;;;20.40;47.50;;;;;;5100136;28;20156;-81
2023/06/06 02:33:29;;;;;;;2.90;2.60;;;20.40;47.50;;;;;;5100291;27;20167;-82
2023/06/06 02:35:55;;;;;;;2.70;2.50;;;20.40;47.60;;;;;;5083026;28;20256;-81
2023/06/06 02:38:22;;;;;;;2.90;2.60;;;20.40;47.60;;;;;;5081798;28;20627;-84
2023/06/06 02:40:47;;;;;;;2.63;2.42;;;20.40;47.60;;;;;;5098658;28;20207;-84
2023/06/06 02:43:15;;;;;;;2.45;2.25;;;20.40;47.60;;;;;;5098493;28;20152;-82
2023/06/06 02:45:41;;;;;;;2.90;2.60;;;20.40;47.60;;;;;;5115965;28;20144;-82
2023/06/06 02:48:06;;;;;;;2.65;2.45;;;20.40;47.60;;;;;;5080506;28;20255;-83
2023/06/06 02:50:32;;;;;;;2.75;2.47;;;20.40;47.60;;;;;;5097123;28;20507;-82
2023/06/06 02:53:03;;;;;;;2.42;2.22;;;20.40;47.60;;;;;;5096935;28;20234;-80
2023/06/06 02:55:29;;;;;;;2.63;2.42;;;20.40;47.60;;;;;;5080522;28;20743;-81
2023/06/06 02:57:54;;;;;;;3.00;2.70;;;20.40;47.60;;;;;;5114464;28;20525;-81
2023/06/06 03:00:21;;;;;;;2.35;2.15;;;20.40;47.60;;;;;;5096358;28;20638;-83
2023/06/06 03:02:47;;;;;;;2.65;2.45;;;20.40;47.60;;;;;;5114493;28;20175;-83
2023/06/06 03:05:13;;;;;;;2.30;2.10;;;20.50;47.70;;;;;;5114448;28;20519;-81
2023/06/06 03:07:40;;;;;;;3.03;2.72;;;20.40;47.60;;;;;;5114430;28;20182;-81
2023/06/06 03:10:06;;;;;;;2.90;2.60;;;20.40;47.60;;;;;;5079436;28;20163;-82
2023/06/06 03:12:32;;;;;;;2.83;2.60;;;20.40;47.70;;;;;;5096218;28;20156;-83
2023/06/06 03:14:57;;;;;;;2.63;2.42;;;20.40;47.70;;;;;;5096427;28;20239;-81
2023/06/06 03:17:23;;;;;;;2.95;2.70;;;20.40;47.70;;;;;;5095856;28;20167;-80
2023/06/06 03:19:49;;;;;;;2.50;2.30;;;20.40;48.30;;;;;;5095959;28;20555;-82
2023/06/06 03:22:17;;;;;;;2.97;2.67;;;20.40;47.60;;;;;;5096161;28;20152;-83
2023/06/06 03:24:46;;;;;;;3.30;2.42;;;20.30;47.70;;;;;;5114107;28;20193;-81
2023/06/06 03:27:13;;;;;;;2.97;2.50;;;20.30;47.70;;;;;;5079378;28;20190;-81
2023/06/06 03:29:39;;;;;;;2.83;2.60;;;20.30;47.70;;;;;;5096039;28;20262;-79
2023/06/06 03:32:06;;;;;;;2.58;2.38;;;20.40;47.80;;;;;;5095967;28;20253;-83
2023/06/06 03:34:32;;;;;;;3.40;2.83;;;20.30;47.70;;;;;;5095465;28;20257;-81
2023/06/06 03:36:58;;;;;;;2.90;2.60;;;20.40;47.70;;;;;;5095868;28;20168;-81
2023/06/06 03:39:25;;;;;;;2.42;2.22;;;20.40;47.70;;;;;;5078716;28;20541;-79
2023/06/06 03:41:51;;;;;;;2.72;2.50;;;20.40;47.60;;;;;;5095899;28;20164;-80
2023/06/06 03:44:16;;;;;;;3.15;2.85;;;20.50;47.60;;;;;;5095584;28;20148;-81
2023/06/06 03:46:42;;;;;;;2.80;2.50;;;20.40;47.60;;;;;;5078975;28;20156;-82
2023/06/06 03:49:08;;;;;;;2.90;2.60;;;20.40;47.60;;;;;;5078831;28;20580;-82
2023/06/06 03:51:33;;;;;;;3.03;2.72;;;20.50;47.60;;;;;;5095505;28;20156;-82
2023/06/06 03:53:59;;;;;;;3.00;2.70;;;20.50;47.60;;;;;;5078825;28;20251;-81
2023/06/06 03:56:25;;;;;;;3.00;2.70;;;20.40;47.50;;;;;;5078507;28;20584;-82
2023/06/06 03:58:51;;;;;;;3.60;2.40;;;20.50;47.50;;;;;;5095375;28;20168;-84
2023/06/06 04:01:16;;;;;;;2.65;2.45;;;20.50;47.40;;;;;;5095405;28;20191;-82
2023/06/06 04:03:42;;;;;;;2.60;2.25;;;20.50;47.40;;;;;;5095224;28;20637;-82
2023/06/06 04:06:08;;;;;;;2.85;2.40;;;20.50;47.40;;;;;;5095289;28;20607;-80
2023/06/06 04:08:35;;;;;;;2.83;2.53;;;20.50;47.30;;;;;;5095394;28;20152;-82
2023/06/06 04:11:00;;;;;;;2.47;2.28;;;20.60;47.40;;;;;;5097813;28;20168;-83
2023/06/06 04:13:26;;;;;;;3.17;2.85;;;20.60;47.30;;;;;;5099439;28;20518;-80
2023/06/06 04:15:52;;;;;;;2.50;2.30;;;20.60;47.30;;;;;;5082700;28;20160;-81
2023/06/06 04:18:17;;;;;;;3.10;2.67;;;20.60;47.40;;;;;;5099238;28;20156;-82
2023/06/06 04:20:44;;;;;;;2.83;2.58;;;20.60;47.30;;;;;;5117693;28;20188;-80
2023/06/06 04:23:10;;;;;;;2.60;2.40;;;20.60;47.30;;;;;;5099399;28;20230;-84
2023/06/06 04:25:35;;;;;;;2.50;2.30;;;20.60;47.20;;;;;;5099349;28;20156;-83
2023/06/06 04:28:01;;;;;;;3.08;2.58;;;20.70;47.30;;;;;;5099325;28;20213;-80
2023/06/06 04:30:29;;;;;;;2.90;2.60;;;20.60;47.20;;;;;;5117311;28;20583;-80
2023/06/06 04:32:56;;;;;;;2.55;2.33;;;20.70;47.30;;;;;;5117521;28;20155;-80
2023/06/06 04:35:22;;;;;;;2.55;2.35;;;20.60;47.10;;;;;;5116335;27;20231;-80
2023/06/06 04:37:50;;;;;;;2.78;2.50;;;20.70;47.10;;;;;;5102523;27;20168;-81
2023/06/06 04:40:16;;;;;;;2.55;2.30;;;20.70;47.10;;;;;;5102867;27;20191;-80
2023/06/06 04:42:41;;;;;;;2.95;2.45;;;20.70;47.10;;;;;;5119230;27;20240;-82
2023/06/06 04:45:08;;;;;;;3.10;2.47;;;20.70;47.00;;;;;;5085356;27;20167;-83
2023/06/06 04:47:34;;;;;;;2.80;2.50;;;20.70;47.10;;;;;;5137536;27;20670;-83
2023/06/06 04:49:59;;;;;;;2.95;2.53;;;20.70;47.00;;;;;;5137470;27;20201;-83
2023/06/06 04:52:25;;;;;;;2.92;2.67;;;20.80;47.10;;;;;;5119351;27;20152;-82
2023/06/06 04:54:51;;;;;;;2.30;2.10;;;20.70;47.00;;;;;;5137326;27;20166;-80
2023/06/06 04:57:19;;;;;;;2.88;2.58;;;20.80;47.00;;;;;;5102228;27;20521;-81
2023/06/06 04:59:50;;;;;;;3.00;2.40;;;20.80;47.00;;;;;;5085452;27;20289;-81
2023/06/06 05:02:20;;;;;;;2.67;2.45;;;20.80;46.90;;;;;;5103502;27;20144;-82
2023/06/06 05:04:47;;;;;;;2.80;2.50;;;20.80;46.90;;;;;;5095901;27;20170;-82
2023/06/06 05:07:13;;;;;;;2.60;2.40;;;20.80;47.00;;;;;;5088669;28;20252;-83
2023/06/06 05:09:39;;;;;;;3.33;2.60;;;20.80;47.00;;;;;;5116563;28;20183;-82
2023/06/06 05:12:05;;;;;;;2.63;2.30;;;20.80;46.90;;;;;;5116543;28;20207;-81
2023/06/06 05:14:30;;;;;;;2.53;2.30;;;20.90;46.90;;;;;;5115268;28;20156;-82
2023/06/06 05:16:57;;;;;;;2.80;2.50;;;20.80;46.90;;;;;;5115270;28;20155;-83
2023/06/06 05:19:22;;;;;;;2.60;2.40;;;20.90;47.00;;;;;;5115184;28;20235;-83
2023/06/06 05:21:48;;;;;;;2.70;2.50;;;20.90;46.90;;;;;;5113920;28;20243;-82
2023/06/06 05:24:14;;;;;;;2.50;2.30;;;20.90;46.80;;;;;;5116462;28;20152;-81
2023/06/06 05:26:40;;;;;;;2.65;2.45;;;20.90;46.90;;;;;;5115397;28;20156;-84
2023/06/06 05:29:06;;;;;;;3.33;2.53;;;20.80;46.90;;;;;;5129443;27;20164;-81
2023/06/06 05:31:33;;;;;;;2.70;2.50;;;20.80;46.90;;;;;;5118109;27;20164;-82
2023/06/06 05:33:59;;;;;;;2.50;2.30;;;20.90;46.90;;;;;;5098117;28;20220;-82
2023/06/06 05:36:25;;;;;;;2.85;2.50;;;20.90;46.70;;;;;;5114753;28;20180;-83
2023/06/06 05:38:51;;;;;;;2.63;2.30;;;21.00;46.80;;;;;;5115095;28;20638;-81
2023/06/06 05:41:18;;;;;;;2.60;2.30;;;20.90;46.80;;;;;;5114815;28;20176;-80
2023/06/06 05:43:45;;;;;;;2.70;2.40;;;20.90;46.70;;;;;;5098486;28;20164;-82
2023/06/06 05:46:11;;;;;;;2.70;2.50;;;21.00;46.70;;;;;;5114861;28;20164;-82
2023/06/06 05:48:37;;;;;;;2.70;2.42;;;21.00;46.60;;;;;;5115000;28;20164;-83
2023/06/06 05:51:03;;;;;;;2.50;2.30;;;21.00;46.50;;;;;;5114779;28;20156;-80
2023/06/06 05:53:29;;;;;;;2.92;2.60;;;21.10;46.50;;;;;;5114798;28;20168;-81
2023/06/06 05:55:54;;;;;;;2.83;2.35;;;21.00;46.60;;;;;;5114526;28;20201;-82
2023/06/06 05:58:20;;;;;;;3.80;2.60;;;21.10;46.70;;;;;;5114531;28;20209;-84
2023/06/06 06:00:45;;;;;;;2.50;2.30;;;21.10;46.70;;;;;;5114306;28;20555;-82
2023/06/06 06:03:12;;;;;;;2.63;2.42;;;21.10;46.60;;;;;;5114440;28;20517;-79
2023/06/06 06:05:37;;;;;;;2.63;2.42;;;21.10;46.70;;;;;;5114580;28;20184;-81
2023/06/06 06:08:04;;;;;;;2.35;2.15;;;21.00;46.90;;;;;;5114472;28;20171;-83
2023/06/06 06:10:31;;;;;;;2.92;2.60;;;21.00;46.80;;;;;;5114812;28;20159;-81
2023/06/06 06:12:57;;;;;;;2.58;2.38;;;21.00;46.70;;;;;;5114528;28;20184;-81
2023/06/06 06:15:23;;;;;;;3.00;2.70;;;21.10;46.80;;;;;;5114756;28;20160;-81
2023/06/06 06:17:49;;;;;;;3.10;2.80;;;21.10;46.80;;;;;;5097458;28;20168;-81
2023/06/06 06:20:16;;;;;;;2.90;2.60;;;21.10;46.70;;;;;;5113779;28;20546;-82
2023/06/06 06:22:42;;;;;;;2.80;2.60;;;21.10;46.70;;;;;;5114102;28;20356;-83
2023/06/06 06:25:12;;;;;;;2.60;2.38;;;21.20;46.70;;;;;;5114538;28;20653;-81
2023/06/06 06:27:40;;;;;;;2.88;2.47;;;21.30;46.60;;;;;;5097419;28;20160;-82
2023/06/06 06:30:06;;;;;;;2.72;2.53;;;21.30;46.50;;;;;;5097697;28;20164;-82
2023/06/06 06:32:33;;;;;;;2.88;2.50;;;21.20;46.50;;;;;;5113432;28;20251;-81
2023/06/06 06:35:00;;;;;;;2.60;2.38;;;21.30;46.60;;;;;;5114719;28;20239;-81
2023/06/06 06:37:26;;;;;;;4.38;2.60;;;21.30;46.60;;;;;;5096660;28;20232;-83
2023/06/06 06:39:51;;;;;;;3.10;2.70;;;21.40;46.50;;;;;;5114602;28;20270;-83
2023/06/06 06:42:17;;;;;;;2.60;2.40;;;21.40;46.30;;;;;;5096404;28;20638;-81
2023/06/06 06:44:43;;;;;;;2.80;2.50;;;21.30;46.40;;;;;;5096555;28;20607;-83
2023/06/06 06:47:08;;;;;;;3.05;2.60;;;21.10;46.70;;;;;;5114731;28;20599;-83
2023/06/06 06:49:34;;;;;;;2.83;2.55;;;20.90;47.40;;;;;;5114683;28;20149;-82
2023/06/06 06:52:00;;;;;;;2.83;2.58;;;20.80;47.80;;;;;;5114433;28;20197;-80
2023/06/06 06:54:26;;;;;;;3.20;2.35;;;20.70;48.00;;;;;;5096097;28;20144;-82
2023/06/06 06:56:53;;;;;;;3.17;2.58;;;20.70;48.10;;;;;;5096312;28;20622;-81
2023/06/06 06:59:20;;;;;;;3.10;2.15;;;20.70;48.30;;;;;;5096467;28;20197;-81
2023/06/06 07:01:49;;;;;;;4.30;2.70;;;20.70;48.90;;;;;;5096439;28;20176;-82
2023/06/06 07:04:17;;;;;;;3.58;2.42;;;20.70;48.30;;;;;;5080050;28;20156;-83
2023/06/06 07:06:43;;;;;;;2.45;2.25;;;20.70;48.60;;;;;;5096195;28;20156;-80
2023/06/06 07:09:09;;;;;;;3.13;2.20;;;20.70;48.40;;;;;;5096707;28;20152;-84
2023/06/06 07:11:35;;;;;;;2.83;2.55;;;20.60;48.40;;;;;;5114407;28;20169;-83
2023/06/06 07:14:00;;;;;;;2.33;2.13;;;20.70;48.40;;;;;;5113969;28;20632;-81
2023/06/06 07:16:26;;;;;;;3.53;2.67;;;20.70;48.60;;;;;;5096017;28;20163;-79
2023/06/06 07:18:53;;;;;;;2.58;2.38;;;20.80;48.50;;;;;;5096679;28;20200;-83
2023/06/06 07:21:20;;;;;;;2.58;2.38;;;20.80;48.40;;;;;;5097112;28;20183;-81
2023/06/06 07:23:47;;;;;;;2.50;2.30;;;20.80;48.50;;;;;;5097035;28;20159;-83
2023/06/06 07:26:16;;;;;;;2.28;2.00;;;20.70;48.50;;;;;;5063525;28;20256;-85
2023/06/06 07:28:43;;;;;;;2.78;2.30;;;20.70;48.70;;;;;;5114242;28;20172;-81
2023/06/06 07:31:09;;;;;;;2.40;2.20;;;20.70;48.40;;;;;;5079979;28;20163;-83
2023/06/06 07:33:35;;;;;;;2.63;2.42;;;20.80;48.70;;;;;;5099025;27;20246;-84
2023/06/06 07:36:00;;;;;;;4.40;2.17;;;20.80;48.60;;;;;;5100163;28;20234;-82
2023/06/06 07:38:26;;;;;;;2.47;2.28;;;20.80;48.50;;;;;;5116991;27;20191;-84
2023/06/06 07:40:53;;;;;;;2.60;2.40;;;20.80;48.70;;;;;;5117350;27;20191;-79
2023/06/06 07:43:18;;;;;;;2.47;2.13;;;20.80;48.60;;;;;;5117373;27;20155;-85
2023/06/06 07:45:44;;;;;;;2.50;2.30;;;20.80;48.70;;;;;;5135236;27;20517;-83
2023/06/06 07:48:10;;;;;;;3.47;2.10;;;20.70;48.60;;;;;;5083542;28;20613;-81
2023/06/06 07:50:35;;;;;;;2.67;2.10;;;20.70;48.80;;;;;;5116999;28;20574;-82
2023/06/06 07:53:01;;;;;;;2.22;2.03;;;20.70;49.00;;;;;;5099623;28;20167;-82
2023/06/06 07:55:28;;;;;;;2.42;2.17;;;20.70;48.90;;;;;;5134807;28;20238;-83
2023/06/06 07:57:56;;;;;;;2.85;2.20;;;20.70;48.90;;;;;;5134972;28;20151;-84
2023/06/06 08:00:22;;;;;;;2.33;2.10;;;20.80;48.90;;;;;;5116853;28;20240;-81
2023/06/06 08:02:48;;;;;;;2.72;2.33;;;20.70;49.00;;;;;;5135199;28;20159;-82
2023/06/06 08:05:13;;;;;;;2.60;2.05;;;20.70;48.90;;;;;;5116763;28;20170;-82
2023/06/06 08:07:39;;;;;;;2.30;2.00;;;20.70;49.10;;;;;;5116653;28;20644;-83
2023/06/06 08:10:06;;;;;;;2.40;2.20;;;20.70;49.00;;;;;;5117137;28;20521;-82
2023/06/06 08:12:32;;;;;;;2.58;2.10;;;20.80;48.90;;;;;;5100413;28;20171;-83
2023/06/06 08:14:58;;;;;;;4.13;2.15;;;20.80;49.00;;;;;;5135035;28;20613;-84
2023/06/06 08:17:23;;;;;;;2.33;2.13;;;20.80;49.20;;;;;;5083509;28;20177;-82
2023/06/06 08:19:49;;;;;;;2.10;1.90;;;20.80;49.10;;;;;;5099562;28;20668;-82
2023/06/06 08:22:15;;;;;;;2.40;1.95;;;20.80;49.20;;;;;;5115280;28;20204;-83
2023/06/06 08:24:41;;;;;;;2.30;2.10;;;20.80;49.30;;;;;;5100202;28;20171;-83
2023/06/06 08:27:07;;;;;;;2.78;2.47;;;20.80;49.30;;;;;;5116990;28;20156;-82
2023/06/06 08:29:33;;;;;;;3.35;2.00;;;20.80;49.40;;;;;;5116217;28;20518;-81
2023/06/06 08:32:01;;;;;;;2.42;2.10;;;20.90;49.20;;;;;;5116501;28;20152;-84
2023/06/06 08:34:27;;;;;;;3.20;1.88;;;20.80;49.20;;;;;;5124651;27;20380;-82
2023/06/06 08:36:53;;;;;;;2.53;2.33;;;20.80;49.30;;;;;;5081214;28;20172;-82
2023/06/06 08:39:19;;;;;;;3.22;2.03;;;20.90;49.40;;;;;;5080428;28;20161;-82
2023/06/06 08:41:50;;;;;;;1.98;1.77;;;20.80;49.50;;;;;;5095415;28;20263;-80
2023/06/06 08:44:18;;;;;;;2.30;2.10;;;20.80;49.60;;;;;;5095149;28;20639;-83
2023/06/06 08:46:45;;;;;;;2.60;2.13;;;20.90;49.50;;;;;;5094687;28;20631;-83
2023/06/06 08:49:11;;;;;;;2.33;2.13;;;20.90;49.60;;;;;;5113219;28;20630;-80
2023/06/06 08:51:37;;;;;;;1.88;1.77;;;20.90;49.30;;;;;;5113442;28;20170;-82
2023/06/06 08:54:02;;;;;;;2.10;1.90;;;20.90;49.40;;;;;;5112071;28;20180;-82
2023/06/06 08:56:28;;;;;;;2.47;2.08;;;20.90;49.60;;;;;;5112868;28;20610;-80
2023/06/06 08:58:54;;;;;;;2.22;2.03;;;20.80;49.70;;;;;;5079883;28;20662;-83
2023/06/06 09:01:20;;;;;;;2.28;1.92;;;20.90;49.80;;;;;;5114623;28;20187;-83
2023/06/06 09:03:48;;;;;;;2.30;2.10;;;20.80;49.80;;;;;;5097276;28;20205;-81
2023/06/06 09:06:16;;;;;;;2.10;1.90;;;21.00;49.70;;;;;;5115551;28;20144;-81
2023/06/06 09:08:43;;;;;;;3.13;2.00;;;21.00;49.70;;;;;;5081264;28;20533;-81
2023/06/06 09:11:08;;;;;;;1.92;1.70;;;21.00;49.70;;;;;;5098385;28;20199;-79
2023/06/06 09:13:34;;;;;;;2.00;1.80;;;21.00;49.80;;;;;;5116510;28;20722;-81
2023/06/06 09:16:03;;;;;;;2.10;1.90;;;20.90;49.90;;;;;;5098251;28;20175;-80
2023/06/06 09:18:29;;;;;;;2.85;1.83;;;20.90;49.80;;;;;;5098347;28;20787;-81
2023/06/06 09:20:56;;;;;;;2.00;1.80;;;21.00;49.90;;;;;;5081516;28;20292;-83
2023/06/06 09:23:22;;;;;;;2.17;1.98;;;21.00;49.80;;;;;;5116591;28;20249;-81
2023/06/06 09:25:48;;;;;;;2.10;1.90;;;21.00;49.80;;;;;;5098536;28;20714;-82
2023/06/06 09:28:13;;;;;;;2.08;1.85;;;20.90;49.90;;;;;;5116813;28;20549;-80
2023/06/06 09:30:39;;;;;;;1.80;1.70;;;20.90;49.90;;;;;;5098748;28;20155;-83
2023/06/06 09:33:05;;;;;;;2.30;2.00;;;20.90;50.00;;;;;;5116346;28;20188;-84
2023/06/06 09:35:32;;;;;;;2.03;1.83;;;21.00;50.00;;;;;;5081152;28;20936;-81
2023/06/06 09:38:17;;;;;;;2.17;1.98;;;21.00;49.90;;;;;;5098359;28;20210;-82
2023/06/06 09:40:44;;;;;;;2.55;2.00;;;21.10;49.80;;;;;;5081212;28;20188;-82
2023/06/06 09:43:10;;;;;;;2.17;1.98;;;21.10;49.80;;;;;;5098265;28;20285;-82
2023/06/06 09:45:50;;;;;;;2.17;1.98;;;21.10;49.70;;;;;;5097926;28;20630;-83
2023/06/06 09:48:21;;;;;;;2.67;1.90;;;21.10;49.90;;;;;;5098466;28;20166;-83
2023/06/06 09:50:48;;;;;;;2.38;2.05;;;21.10;49.70;;;;;;5082892;28;20174;-82
2023/06/06 09:53:14;;;;;;;2.55;1.80;;;21.10;49.90;;;;;;5099427;28;20160;-84
2023/06/06 09:55:41;;;;;;;1.80;1.70;;;21.10;49.90;;;;;;5099740;28;20148;-81
2023/06/06 09:58:07;;;;;;;2.30;2.10;;;21.20;50.50;;;;;;5082720;28;20171;-80
2023/06/06 10:00:37;;;;;;;1.95;1.75;;;21.20;49.80;;;;;;5097988;28;20191;-82
2023/06/06 10:03:04;;;;;;;2.20;2.00;;;21.20;49.70;;;;;;5098843;28;20144;-81
2023/06/06 10:05:30;;;;;;;2.03;1.80;;;21.20;49.80;;;;;;5098168;28;20156;-80
2023/06/06 10:07:56;;;;;;;3.00;1.85;;;21.20;49.80;;;;;;5097559;28;20629;-81
2023/06/06 10:10:22;;;;;;;2.63;2.42;;;21.10;50.10;;;;;;5098068;28;20164;-85
2023/06/06 10:12:47;;;;;;;1.80;1.70;;;21.10;50.00;;;;;;5116328;28;20148;-83
2023/06/06 10:15:13;;;;;;;2.47;2.03;;;21.20;50.10;;;;;;5099200;28;20159;-81
2023/06/06 10:17:40;;;;;;;2.03;1.83;;;21.20;50.30;;;;;;5116552;28;20164;-81
2023/06/06 10:20:06;;;;;;;2.20;1.80;;;21.20;50.20;;;;;;5098416;28;20242;-84
2023/06/06 10:22:34;;;;;;;3.15;1.80;;;21.20;50.10;;;;;;5081774;28;20164;-83
2023/06/06 10:24:59;;;;;;;3.50;1.80;;;21.10;50.10;;;;;;5098264;28;20145;-80
2023/06/06 10:27:26;;;;;;;2.10;1.90;;;21.10;50.10;;;;;;5098099;28;20197;-82
2023/06/06 10:30:02;;;;;;;3.50;1.90;;;21.10;50.00;;;;;;5081031;28;20164;-83
2023/06/06 10:32:38;;;;;;;2.30;2.10;;;21.10;49.90;;;;;;5097409;28;20632;-84
2023/06/06 10:35:06;;;;;;;1.90;1.70;;;21.20;49.70;;;;;;5096936;28;20230;-80
2023/06/06 10:37:33;;;;;;;2.38;2.00;;;21.10;49.70;;;;;;5081886;28;20160;-80
2023/06/06 10:40:02;;;;;;;4.00;2.20;;;21.10;49.60;;;;;;5097497;28;20270;-81
2023/06/06 10:42:37;;;;;;;3.35;2.10;;;21.20;50.30;;;;;;5097583;28;20622;-84
2023/06/06 10:45:03;;;;;;;2.67;2.08;;;21.20;49.60;;;;;;5097503;28;20174;-81
2023/06/06 10:47:32;;;;;;;3.20;2.22;;;21.20;49.60;;;;;;5115209;28;20144;-82
2023/06/06 10:50:21;;;;;;;3.45;2.05;;;21.20;49.40;;;;;;5080563;28;20175;-85
2023/06/06 10:53:04;;;;;;;4.68;2.03;;;21.20;49.50;;;;;;5097194;28;20203;-82
2023/06/06 10:55:44;;;;;;;2.08;1.88;;;21.30;49.40;;;;;;5098068;28;20152;-84
2023/06/06 10:58:18;;;;;;;2.42;2.00;;;21.30;49.40;;;;;;5097338;28;20168;-83
2023/06/06 11:00:44;;;;;;;4.05;2.20;;;21.20;49.40;;;;;;5097854;28;20179;-82
2023/06/06 11:03:15;;;;;;;2.65;2.00;;;21.30;49.40;;;;;;5097667;28;20661;-83
2023/06/06 11:06:03;;;;;;;3.65;2.20;;;21.30;49.40;;;;;;5097349;28;20190;-83
2023/06/06 11:08:48;;;;;;;3.35;2.10;;;21.30;49.40;;;;;;5097195;28;20153;-82
2023/06/06 11:11:25;;;;;;;3.00;1.80;;;21.30;49.40;;;;;;5099388;28;20194;-83
2023/06/06 11:13:57;;;;;;;2.35;1.92;;;21.20;49.30;;;;;;5098366;28;20598;-82
2023/06/06 11:16:51;;;;;;;2.15;1.95;;;21.30;49.50;;;;;;5115183;28;20243;-81
2023/06/06 11:19:19;;;;;;;2.72;2.08;;;21.20;49.40;;;;;;5098057;28;20167;-80
2023/06/06 11:21:46;;;;;;;2.05;1.80;;;21.30;49.40;;;;;;5115226;28;20183;-81
2023/06/06 11:24:12;;;;;;;2.08;1.88;;;21.30;49.40;;;;;;5098258;28;20209;-82
2023/06/06 11:26:39;;;;;;;2.08;1.85;;;21.30;49.40;;;;;;5097376;28;20247;-82
2023/06/06 11:29:07;;;;;;;2.50;2.00;;;21.30;49.40;;;;;;5079803;28;20627;-82
2023/06/06 11:31:35;;;;;;;3.45;2.33;;;21.30;49.50;;;;;;5097342;28;20581;-81
2023/06/06 11:34:15;;;;;;;2.40;2.17;;;21.30;49.50;;;;;;5103130;27;20219;-81
2023/06/06 11:36:44;;;;;;;2.20;2.00;;;21.20;49.60;;;;;;5137224;27;20208;-84
2023/06/06 11:39:11;;;;;;;2.10;1.88;;;21.30;49.50;;;;;;5117898;27;20162;-83
2023/06/06 11:41:42;;;;;;;2.33;1.98;;;21.30;49.40;;;;;;5137188;27;20187;-84
2023/06/06 11:44:08;;;;;;;3.55;2.22;;;21.40;49.50;;;;;;5118315;27;20147;-82
2023/06/06 11:46:48;;;;;;;2.55;2.03;;;21.30;49.60;;;;;;5100214;27;20620;-80
2023/06/06 11:49:15;;;;;;;2.20;1.98;;;21.30;49.60;;;;;;5101869;28;20231;-81
2023/06/06 11:51:41;;;;;;;2.13;1.92;;;21.40;49.60;;;;;;5118509;28;20162;-83
2023/06/06 11:54:18;;;;;;;2.13;1.92;;;21.40;49.80;;;;;;5117342;28;20167;-81
2023/06/06 11:56:44;;;;;;;4.90;2.17;;;21.40;49.70;;;;;;5100142;28;20215;-82
2023/06/06 11:59:13;;;;;;;2.08;1.83;;;21.40;49.70;;;;;;5116744;28;20143;-83
2023/06/06 12:01:52;;;;;;;3.03;2.10;;;21.40;49.80;;;;;;5116557;28;20183;-81
2023/06/06 12:04:21;;;;;;;2.47;1.90;;;21.40;49.70;;;;;;5117748;28;20557;-82
2023/06/06 12:06:48;;;;;;;2.15;1.77;;;21.40;49.70;;;;;;5117725;28;20155;-83
2023/06/06 12:09:14;;;;;;;4.80;2.15;;;21.40;49.80;;;;;;5135336;28;20538;-83
2023/06/06 12:11:56;;;;;;;3.53;2.10;;;21.50;49.80;;;;;;5099795;28;20257;-82
2023/06/06 12:14:25;;;;;;;2.00;1.80;;;21.50;49.70;;;;;;5117205;28;20147;-83
2023/06/06 12:16:51;;;;;;;2.75;2.05;;;21.40;49.80;;;;;;5100729;28;20167;-80
2023/06/06 12:19:17;;;;;;;3.65;1.90;;;21.40;49.90;;;;;;5100983;28;20168;-83
2023/06/06 12:21:51;;;;;;;2.60;2.40;;;21.40;50.00;;;;;;5117578;28;20193;-81
2023/06/06 12:24:22;;;;;;;2.60;1.92;;;21.40;50.10;;;;;;5117760;28;20148;-82
2023/06/06 12:26:55;;;;;;;2.78;2.30;;;21.30;50.10;;;;;;5118294;28;20155;-84
2023/06/06 12:29:23;;;;;;;3.25;2.03;;;21.40;50.10;;;;;;5102781;28;20198;-81
2023/06/06 12:31:50;;;;;;;2.28;1.95;;;21.50;50.10;;;;;;5104365;27;20541;-81
2023/06/06 12:34:19;;;;;;;3.03;1.98;;;21.40;49.90;;;;;;5104682;27;20566;-84
2023/06/06 12:36:51;;;;;;;2.10;1.90;;;21.50;50.00;;;;;;5121702;27;20167;-81
2023/06/06 12:39:23;;;;;;;2.45;1.98;;;21.40;50.10;;;;;;5121338;27;20640;-83
2023/06/06 12:41:49;;;;;;;2.67;1.83;;;21.40;50.10;;;;;;5103892;27;20191;-84
2023/06/06 12:44:17;;;;;;;4.05;2.05;;;21.40;50.20;;;;;;5138916;27;20151;-80
2023/06/06 12:46:45;;;;;;;2.75;2.10;;;21.40;50.40;;;;;;5103412;27;20570;-82
2023/06/06 12:49:10;;;;;;;2.15;1.95;;;21.40;50.50;;;;;;5104084;27;20283;-84